sensor_id;sensor_type;location;lat;lon;timestamp;P1;durP1;ratioP1;P2;durP2;ratioP2
34585;SDS011;20816;50.950;11.108;2022-09-16T00:01:53;0.60;;;0.60;;
34585;SDS011;20816;50.950;11.108;2022-09-16T00:04:19;1.33;;;0.90;;
34585;SDS011;20816;50.950;11.108;2022-09-16T00:06:46;1.40;;;0.80;;
34585;SDS011;20816;50.950;11.108;2022-09-16T00:09:13;0.93;;;0.67;;
34585;SDS011;20816;50.950;11.108;2022-09-16T00:11:39;2.70;;;0.90;;
34585;SDS011;20816;50.950;11.108;2022-09-16T00:14:06;2.07;;;1.07;;
34585;SDS011;20816;50.950;11.108;2022-09-16T00:16:32;1.57;;;1.30;;
34585;SDS011;20816;50.950;11.108;2022-09-16T00:18:59;2.50;;;1.23;;
34585;SDS011;20816;50.950;11.108;2022-09-16T00:21:27;3.63;;;1.33;;
34585;SDS011;20816;50.950;11.108;2022-09-16T00:23:55;2.23;;;0.77;;
34585;SDS011;20816;50.950;11.108;2022-09-16T00:26:22;2.60;;;0.80;;
34585;SDS011;20816;50.950;11.108;2022-09-16T00:28:49;4.93;;;1.30;;
34585;SDS011;20816;50.950;11.108;2022-09-16T00:31:16;7.30;;;1.33;;
34585;SDS011;20816;50.950;11.108;2022-09-16T00:33:43;2.93;;;1.13;;
34585;SDS011;20816;50.950;11.108;2022-09-16T00:36:11;2.80;;;1.47;;
34585;SDS011;20816;50.950;11.108;2022-09-16T00:38:40;1.27;;;0.87;;
34585;SDS011;20816;50.950;11.108;2022-09-16T00:41:08;3.10;;;1.03;;
34585;SDS011;20816;50.950;11.108;2022-09-16T00:43:52;1.10;;;0.70;;
34585;SDS011;20816;50.950;11.108;2022-09-16T00:46:24;2.27;;;1.20;;
34585;SDS011;20816;50.950;11.108;2022-09-16T00:48:56;2.37;;;1.00;;
34585;SDS011;20816;50.950;11.108;2022-09-16T00:51:26;0.97;;;0.90;;
34585;SDS011;20816;50.950;11.108;2022-09-16T00:53:55;3.47;;;1.20;;
34585;SDS011;20816;50.950;11.108;2022-09-16T00:56:25;3.50;;;0.90;;
34585;SDS011;20816;50.950;11.108;2022-09-16T01:01:30;3.43;;;1.57;;
34585;SDS011;20816;50.950;11.108;2022-09-16T01:03:59;1.03;;;0.53;;
34585;SDS011;20816;50.950;11.108;2022-09-16T01:06:29;0.70;;;0.70;;
34585;SDS011;20816;50.950;11.108;2022-09-16T01:09:01;1.40;;;0.93;;
34585;SDS011;20816;50.950;11.108;2022-09-16T01:11:27;1.53;;;0.90;;
34585;SDS011;20816;50.950;11.108;2022-09-16T01:13:54;2.73;;;1.03;;
34585;SDS011;20816;50.950;11.108;2022-09-16T01:16:42;1.60;;;1.13;;
34585;SDS011;20816;50.950;11.108;2022-09-16T01:36:49;1.23;;;0.70;;
34585;SDS011;20816;50.950;11.108;2022-09-16T01:47:35;1.50;;;0.70;;
34585;SDS011;20816;50.950;11.108;2022-09-16T01:55:46;0.70;;;0.40;;
34585;SDS011;20816;50.950;11.108;2022-09-16T01:58:25;1.90;;;0.60;;
34585;SDS011;20816;50.950;11.108;2022-09-16T02:01:01;0.47;;;0.47;;
34585;SDS011;20816;50.950;11.108;2022-09-16T02:03:33;0.90;;;0.40;;
34585;SDS011;20816;50.950;11.108;2022-09-16T02:06:02;0.50;;;0.50;;
34585;SDS011;20816;50.950;11.108;2022-09-16T02:08:38;0.57;;;0.50;;
34585;SDS011;20816;50.950;11.108;2022-09-16T02:11:09;0.40;;;0.40;;
34585;SDS011;20816;50.950;11.108;2022-09-16T02:13:40;0.97;;;0.90;;
34585;SDS011;20816;50.950;11.108;2022-09-16T02:16:11;2.67;;;0.77;;
34585;SDS011;20816;50.950;11.108;2022-09-16T02:18:42;0.73;;;0.60;;
34585;SDS011;20816;50.950;11.108;2022-09-16T02:21:16;7.33;;;0.80;;
34585;SDS011;20816;50.950;11.108;2022-09-16T02:23:46;2.27;;;0.60;;
34585;SDS011;20816;50.950;11.108;2022-09-16T02:26:18;0.53;;;0.50;;
34585;SDS011;20816;50.950;11.108;2022-09-16T02:28:49;1.73;;;0.70;;
34585;SDS011;20816;50.950;11.108;2022-09-16T02:31:20;1.83;;;0.27;;
34585;SDS011;20816;50.950;11.108;2022-09-16T02:33:55;2.37;;;0.43;;
34585;SDS011;20816;50.950;11.108;2022-09-16T02:36:26;3.50;;;0.53;;
34585;SDS011;20816;50.950;11.108;2022-09-16T02:38:59;0.53;;;0.40;;
34585;SDS011;20816;50.950;11.108;2022-09-16T02:41:31;0.50;;;0.40;;
34585;SDS011;20816;50.950;11.108;2022-09-16T02:43:57;1.80;;;0.40;;
34585;SDS011;20816;50.950;11.108;2022-09-16T02:46:26;1.60;;;0.43;;
34585;SDS011;20816;50.950;11.108;2022-09-16T02:57:35;2.00;;;0.60;;
34585;SDS011;20816;50.950;11.108;2022-09-16T03:00:04;1.00;;;0.37;;
34585;SDS011;20816;50.950;11.108;2022-09-16T03:02:32;0.50;;;0.47;;
34585;SDS011;20816;50.950;11.108;2022-09-16T03:05:00;2.97;;;0.70;;
34585;SDS011;20816;50.950;11.108;2022-09-16T03:07:27;0.70;;;0.60;;
34585;SDS011;20816;50.950;11.108;2022-09-16T03:09:54;2.23;;;0.40;;
34585;SDS011;20816;50.950;11.108;2022-09-16T03:20:52;0.83;;;0.60;;
34585;SDS011;20816;50.950;11.108;2022-09-16T03:23:46;0.30;;;0.30;;
34585;SDS011;20816;50.950;11.108;2022-09-16T03:34:59;4.17;;;2.03;;
34585;SDS011;20816;50.950;11.108;2022-09-16T03:37:52;1.80;;;1.33;;
34585;SDS011;20816;50.950;11.108;2022-09-16T03:40:21;2.00;;;0.60;;
34585;SDS011;20816;50.950;11.108;2022-09-16T03:42:48;1.17;;;0.60;;
34585;SDS011;20816;50.950;11.108;2022-09-16T03:45:17;8.27;;;1.17;;
34585;SDS011;20816;50.950;11.108;2022-09-16T03:47:46;1.07;;;0.77;;
34585;SDS011;20816;50.950;11.108;2022-09-16T03:50:15;0.70;;;0.70;;
34585;SDS011;20816;50.950;11.108;2022-09-16T03:52:42;0.87;;;0.73;;
34585;SDS011;20816;50.950;11.108;2022-09-16T03:55:09;1.33;;;0.60;;
34585;SDS011;20816;50.950;11.108;2022-09-16T03:57:36;1.80;;;0.77;;
34585;SDS011;20816;50.950;11.108;2022-09-16T04:00:04;2.77;;;0.57;;
34585;SDS011;20816;50.950;11.108;2022-09-16T04:02:33;2.00;;;0.87;;
34585;SDS011;20816;50.950;11.108;2022-09-16T04:05:01;2.03;;;1.03;;
34585;SDS011;20816;50.950;11.108;2022-09-16T04:07:27;1.03;;;0.80;;
34585;SDS011;20816;50.950;11.108;2022-09-16T04:09:54;2.20;;;0.60;;
34585;SDS011;20816;50.950;11.108;2022-09-16T04:12:20;3.73;;;0.50;;
34585;SDS011;20816;50.950;11.108;2022-09-16T04:14:47;0.67;;;0.60;;
34585;SDS011;20816;50.950;11.108;2022-09-16T04:17:14;1.33;;;1.23;;
34585;SDS011;20816;50.950;11.108;2022-09-16T04:19:40;1.83;;;1.03;;
34585;SDS011;20816;50.950;11.108;2022-09-16T04:22:07;1.50;;;1.13;;
34585;SDS011;20816;50.950;11.108;2022-09-16T04:24:33;0.80;;;0.80;;
34585;SDS011;20816;50.950;11.108;2022-09-16T04:27:01;0.87;;;0.70;;
34585;SDS011;20816;50.950;11.108;2022-09-16T04:29:27;1.27;;;1.00;;
34585;SDS011;20816;50.950;11.108;2022-09-16T04:31:54;1.43;;;0.70;;
34585;SDS011;20816;50.950;11.108;2022-09-16T04:34:20;1.27;;;0.90;;
34585;SDS011;20816;50.950;11.108;2022-09-16T04:36:47;5.70;;;1.37;;
34585;SDS011;20816;50.950;11.108;2022-09-16T04:39:13;2.27;;;0.70;;
34585;SDS011;20816;50.950;11.108;2022-09-16T04:41:40;1.97;;;0.90;;
34585;SDS011;20816;50.950;11.108;2022-09-16T04:44:08;0.83;;;0.83;;
34585;SDS011;20816;50.950;11.108;2022-09-16T04:46:35;3.90;;;1.13;;
34585;SDS011;20816;50.950;11.108;2022-09-16T04:49:02;1.40;;;1.00;;
34585;SDS011;20816;50.950;11.108;2022-09-16T04:51:29;0.87;;;0.87;;
34585;SDS011;20816;50.950;11.108;2022-09-16T04:53:57;1.27;;;1.10;;
34585;SDS011;20816;50.950;11.108;2022-09-16T04:56:26;1.27;;;1.00;;
34585;SDS011;20816;50.950;11.108;2022-09-16T04:59:01;3.20;;;1.03;;
34585;SDS011;20816;50.950;11.108;2022-09-16T05:01:33;1.97;;;1.13;;
34585;SDS011;20816;50.950;11.108;2022-09-16T05:04:03;4.03;;;1.53;;
34585;SDS011;20816;50.950;11.108;2022-09-16T05:06:33;3.00;;;1.30;;
34585;SDS011;20816;50.950;11.108;2022-09-16T05:09:02;2.17;;;1.70;;
34585;SDS011;20816;50.950;11.108;2022-09-16T05:11:30;4.20;;;1.23;;
34585;SDS011;20816;50.950;11.108;2022-09-16T05:14:02;2.23;;;1.67;;
34585;SDS011;20816;50.950;11.108;2022-09-16T05:16:31;3.93;;;1.33;;
34585;SDS011;20816;50.950;11.108;2022-09-16T05:18:59;3.37;;;1.43;;
34585;SDS011;20816;50.950;11.108;2022-09-16T05:21:30;4.43;;;1.37;;
34585;SDS011;20816;50.950;11.108;2022-09-16T05:23:59;3.33;;;1.77;;
34585;SDS011;20816;50.950;11.108;2022-09-16T05:26:28;2.30;;;1.77;;
34585;SDS011;20816;50.950;11.108;2022-09-16T05:29:07;3.60;;;1.53;;
34585;SDS011;20816;50.950;11.108;2022-09-16T05:31:37;3.00;;;1.80;;
34585;SDS011;20816;50.950;11.108;2022-09-16T05:34:15;2.10;;;1.40;;
34585;SDS011;20816;50.950;11.108;2022-09-16T05:36:43;4.40;;;1.90;;
34585;SDS011;20816;50.950;11.108;2022-09-16T05:39:13;2.37;;;1.70;;
34585;SDS011;20816;50.950;11.108;2022-09-16T05:41:55;3.23;;;1.57;;
34585;SDS011;20816;50.950;11.108;2022-09-16T05:44:24;1.73;;;1.40;;
34585;SDS011;20816;50.950;11.108;2022-09-16T05:46:51;3.30;;;1.57;;
34585;SDS011;20816;50.950;11.108;2022-09-16T05:49:19;1.77;;;1.37;;
34585;SDS011;20816;50.950;11.108;2022-09-16T05:51:46;1.53;;;1.43;;
34585;SDS011;20816;50.950;11.108;2022-09-16T05:54:14;3.27;;;1.43;;
34585;SDS011;20816;50.950;11.108;2022-09-16T05:56:44;1.80;;;1.57;;
34585;SDS011;20816;50.950;11.108;2022-09-16T05:59:12;5.00;;;1.50;;
34585;SDS011;20816;50.950;11.108;2022-09-16T06:01:39;2.63;;;1.73;;
34585;SDS011;20816;50.950;11.108;2022-09-16T06:04:08;5.43;;;1.53;;
34585;SDS011;20816;50.950;11.108;2022-09-16T06:06:38;2.57;;;1.27;;
34585;SDS011;20816;50.950;11.108;2022-09-16T06:09:07;1.97;;;1.43;;
34585;SDS011;20816;50.950;11.108;2022-09-16T06:11:36;2.03;;;1.20;;
34585;SDS011;20816;50.950;11.108;2022-09-16T06:14:08;2.53;;;1.30;;
34585;SDS011;20816;50.950;11.108;2022-09-16T06:16:35;2.70;;;2.10;;
34585;SDS011;20816;50.950;11.108;2022-09-16T06:19:04;5.93;;;1.93;;
34585;SDS011;20816;50.950;11.108;2022-09-16T06:21:36;2.30;;;1.70;;
34585;SDS011;20816;50.950;11.108;2022-09-16T06:24:03;3.00;;;1.90;;
34585;SDS011;20816;50.950;11.108;2022-09-16T06:26:38;2.23;;;2.03;;
34585;SDS011;20816;50.950;11.108;2022-09-16T06:29:06;3.17;;;1.73;;
34585;SDS011;20816;50.950;11.108;2022-09-16T06:31:34;6.00;;;1.77;;
34585;SDS011;20816;50.950;11.108;2022-09-16T06:34:01;1.73;;;1.50;;
34585;SDS011;20816;50.950;11.108;2022-09-16T06:36:29;3.83;;;1.90;;
34585;SDS011;20816;50.950;11.108;2022-09-16T06:38:58;3.23;;;1.47;;
34585;SDS011;20816;50.950;11.108;2022-09-16T06:41:24;6.03;;;1.67;;
34585;SDS011;20816;50.950;11.108;2022-09-16T06:43:51;3.77;;;1.23;;
34585;SDS011;20816;50.950;11.108;2022-09-16T06:46:19;1.53;;;1.33;;
34585;SDS011;20816;50.950;11.108;2022-09-16T06:48:51;1.37;;;1.20;;
34585;SDS011;20816;50.950;11.108;2022-09-16T06:51:22;1.57;;;1.33;;
34585;SDS011;20816;50.950;11.108;2022-09-16T06:53:50;2.40;;;1.77;;
34585;SDS011;20816;50.950;11.108;2022-09-16T06:56:18;1.27;;;1.17;;
34585;SDS011;20816;50.950;11.108;2022-09-16T06:58:47;3.33;;;1.63;;
34585;SDS011;20816;50.950;11.108;2022-09-16T07:01:16;1.87;;;1.60;;
34585;SDS011;20816;50.950;11.108;2022-09-16T07:03:45;1.60;;;1.30;;
34585;SDS011;20816;50.950;11.108;2022-09-16T07:06:13;8.57;;;1.50;;
34585;SDS011;20816;50.950;11.108;2022-09-16T07:08:41;4.73;;;1.70;;
34585;SDS011;20816;50.950;11.108;2022-09-16T07:11:12;3.27;;;1.13;;
34585;SDS011;20816;50.950;11.108;2022-09-16T07:13:41;1.43;;;1.10;;
34585;SDS011;20816;50.950;11.108;2022-09-16T07:16:10;3.53;;;1.40;;
34585;SDS011;20816;50.950;11.108;2022-09-16T07:18:40;1.87;;;1.10;;
34585;SDS011;20816;50.950;11.108;2022-09-16T07:21:09;12.40;;;1.40;;
34585;SDS011;20816;50.950;11.108;2022-09-16T07:23:39;2.97;;;1.20;;
34585;SDS011;20816;50.950;11.108;2022-09-16T07:26:20;5.50;;;1.27;;
34585;SDS011;20816;50.950;11.108;2022-09-16T07:28:49;3.27;;;1.27;;
34585;SDS011;20816;50.950;11.108;2022-09-16T07:31:17;1.47;;;0.90;;
34585;SDS011;20816;50.950;11.108;2022-09-16T07:33:47;2.03;;;1.13;;
34585;SDS011;20816;50.950;11.108;2022-09-16T07:36:17;1.80;;;0.80;;
34585;SDS011;20816;50.950;11.108;2022-09-16T07:38:48;1.47;;;1.20;;
34585;SDS011;20816;50.950;11.108;2022-09-16T07:41:20;1.00;;;0.90;;
34585;SDS011;20816;50.950;11.108;2022-09-16T07:43:48;0.70;;;0.70;;
34585;SDS011;20816;50.950;11.108;2022-09-16T07:46:16;1.73;;;0.90;;
34585;SDS011;20816;50.950;11.108;2022-09-16T07:48:45;2.20;;;0.73;;
34585;SDS011;20816;50.950;11.108;2022-09-16T07:51:15;1.20;;;1.10;;
34585;SDS011;20816;50.950;11.108;2022-09-16T07:53:45;1.07;;;0.80;;
34585;SDS011;20816;50.950;11.108;2022-09-16T07:56:17;1.37;;;0.70;;
34585;SDS011;20816;50.950;11.108;2022-09-16T07:58:45;1.03;;;0.77;;
34585;SDS011;20816;50.950;11.108;2022-09-16T08:01:13;0.57;;;0.57;;
34585;SDS011;20816;50.950;11.108;2022-09-16T08:03:42;1.40;;;0.70;;
34585;SDS011;20816;50.950;11.108;2022-09-16T08:06:13;0.93;;;0.60;;
34585;SDS011;20816;50.950;11.108;2022-09-16T08:08:45;1.80;;;0.80;;
34585;SDS011;20816;50.950;11.108;2022-09-16T08:11:12;0.80;;;0.63;;
34585;SDS011;20816;50.950;11.108;2022-09-16T08:13:41;2.03;;;0.57;;
34585;SDS011;20816;50.950;11.108;2022-09-16T08:16:16;2.10;;;0.60;;
34585;SDS011;20816;50.950;11.108;2022-09-16T08:18:45;2.73;;;1.60;;
34585;SDS011;20816;50.950;11.108;2022-09-16T08:21:16;0.90;;;0.73;;
34585;SDS011;20816;50.950;11.108;2022-09-16T08:23:46;0.50;;;0.43;;
34585;SDS011;20816;50.950;11.108;2022-09-16T08:26:13;1.10;;;0.73;;
34585;SDS011;20816;50.950;11.108;2022-09-16T08:28:41;1.00;;;1.00;;
34585;SDS011;20816;50.950;11.108;2022-09-16T08:31:28;0.50;;;0.50;;
34585;SDS011;20816;50.950;11.108;2022-09-16T08:33:56;1.02;;;0.68;;
34585;SDS011;20816;50.950;11.108;2022-09-16T08:36:23;3.97;;;0.90;;
34585;SDS011;20816;50.950;11.108;2022-09-16T08:38:51;0.37;;;0.37;;
34585;SDS011;20816;50.950;11.108;2022-09-16T08:49:57;0.80;;;0.52;;
34585;SDS011;20816;50.950;11.108;2022-09-16T08:55:03;1.33;;;0.87;;
34585;SDS011;20816;50.950;11.108;2022-09-16T08:57:39;0.87;;;0.50;;
34585;SDS011;20816;50.950;11.108;2022-09-16T09:00:12;1.43;;;0.53;;
34585;SDS011;20816;50.950;11.108;2022-09-16T09:02:45;3.03;;;0.60;;
34585;SDS011;20816;50.950;11.108;2022-09-16T09:05:26;1.85;;;0.70;;
34585;SDS011;20816;50.950;11.108;2022-09-16T09:08:10;0.68;;;0.50;;
34585;SDS011;20816;50.950;11.108;2022-09-16T09:10:49;0.50;;;0.50;;
34585;SDS011;20816;50.950;11.108;2022-09-16T09:24:58;0.65;;;0.45;;
34585;SDS011;20816;50.950;11.108;2022-09-16T09:27:50;1.05;;;0.82;;
34585;SDS011;20816;50.950;11.108;2022-09-16T09:30:25;1.67;;;0.77;;
34585;SDS011;20816;50.950;11.108;2022-09-16T09:41:40;2.25;;;0.47;;
34585;SDS011;20816;50.950;11.108;2022-09-16T09:46:55;0.45;;;0.40;;
34585;SDS011;20816;50.950;11.108;2022-09-16T09:54:47;2.50;;;0.45;;
34585;SDS011;20816;50.950;11.108;2022-09-16T09:57:21;1.90;;;0.60;;
34585;SDS011;20816;50.950;11.108;2022-09-16T09:59:57;1.65;;;0.65;;
34585;SDS011;20816;50.950;11.108;2022-09-16T10:02:38;2.25;;;0.60;;
34585;SDS011;20816;50.950;11.108;2022-09-16T10:07:56;1.83;;;0.88;;
34585;SDS011;20816;50.950;11.108;2022-09-16T10:10:26;0.50;;;0.50;;
34585;SDS011;20816;50.950;11.108;2022-09-16T10:13:07;0.82;;;0.50;;
34585;SDS011;20816;50.950;11.108;2022-09-16T10:15:35;1.73;;;0.52;;
34585;SDS011;20816;50.950;11.108;2022-09-16T10:18:07;0.70;;;0.70;;
34585;SDS011;20816;50.950;11.108;2022-09-16T10:20:39;1.52;;;0.50;;
34585;SDS011;20816;50.950;11.108;2022-09-16T10:23:09;1.77;;;0.57;;
34585;SDS011;20816;50.950;11.108;2022-09-16T10:25:38;0.70;;;0.70;;
34585;SDS011;20816;50.950;11.108;2022-09-16T10:28:20;0.52;;;0.52;;
34585;SDS011;20816;50.950;11.108;2022-09-16T10:30:50;0.52;;;0.52;;
34585;SDS011;20816;50.950;11.108;2022-09-16T10:33:52;0.80;;;0.80;;
34585;SDS011;20816;50.950;11.108;2022-09-16T10:36:19;1.50;;;0.60;;
34585;SDS011;20816;50.950;11.108;2022-09-16T10:38:59;1.23;;;1.02;;
34585;SDS011;20816;50.950;11.108;2022-09-16T10:41:40;4.70;;;2.35;;
34585;SDS011;20816;50.950;11.108;2022-09-16T10:47:02;0.85;;;0.55;;
34585;SDS011;20816;50.950;11.108;2022-09-16T10:52:23;0.50;;;0.50;;
34585;SDS011;20816;50.950;11.108;2022-09-16T10:54:54;0.40;;;0.40;;
34585;SDS011;20816;50.950;11.108;2022-09-16T10:57:29;0.40;;;0.40;;
34585;SDS011;20816;50.950;11.108;2022-09-16T11:03:06;1.40;;;0.40;;
34585;SDS011;20816;50.950;11.108;2022-09-16T11:08:48;0.43;;;0.43;;
34585;SDS011;20816;50.950;11.108;2022-09-16T11:12:03;0.73;;;0.73;;
34585;SDS011;20816;50.950;11.108;2022-09-16T11:20:03;1.08;;;0.80;;
34585;SDS011;20816;50.950;11.108;2022-09-16T11:22:55;0.85;;;0.80;;
34585;SDS011;20816;50.950;11.108;2022-09-16T11:31:15;3.40;;;0.70;;
34585;SDS011;20816;50.950;11.108;2022-09-16T11:34:17;2.60;;;0.70;;
34585;SDS011;20816;50.950;11.108;2022-09-16T11:37:19;0.60;;;0.60;;
34585;SDS011;20816;50.950;11.108;2022-09-16T11:45:57;1.85;;;0.47;;
34585;SDS011;20816;50.950;11.108;2022-09-16T11:51:10;0.60;;;0.50;;
34585;SDS011;20816;50.950;11.108;2022-09-16T11:53:51;6.07;;;1.13;;
34585;SDS011;20816;50.950;11.108;2022-09-16T12:01:38;0.80;;;0.80;;
34585;SDS011;20816;50.950;11.108;2022-09-16T12:04:16;0.55;;;0.40;;
34585;SDS011;20816;50.950;11.108;2022-09-16T12:06:55;0.50;;;0.40;;
34585;SDS011;20816;50.950;11.108;2022-09-16T12:09:49;0.35;;;0.30;;
34585;SDS011;20816;50.950;11.108;2022-09-16T12:12:25;0.47;;;0.20;;
34585;SDS011;20816;50.950;11.108;2022-09-16T12:14:58;0.50;;;0.30;;
34585;SDS011;20816;50.950;11.108;2022-09-16T12:17:32;2.05;;;0.20;;
34585;SDS011;20816;50.950;11.108;2022-09-16T12:20:22;3.22;;;0.40;;
34585;SDS011;20816;50.950;11.108;2022-09-16T12:23:00;0.52;;;0.35;;
34585;SDS011;20816;50.950;11.108;2022-09-16T12:25:40;0.43;;;0.38;;
34585;SDS011;20816;50.950;11.108;2022-09-16T12:28:33;1.35;;;0.20;;
34585;SDS011;20816;50.950;11.108;2022-09-16T12:31:07;0.68;;;0.50;;
34585;SDS011;20816;50.950;11.108;2022-09-16T12:33:39;0.95;;;0.60;;
34585;SDS011;20816;50.950;11.108;2022-09-16T12:36:21;2.78;;;1.20;;
34585;SDS011;20816;50.950;11.108;2022-09-16T12:38:53;1.00;;;0.40;;
34585;SDS011;20816;50.950;11.108;2022-09-16T13:03:19;0.45;;;0.35;;
34585;SDS011;20816;50.950;11.108;2022-09-16T13:05:50;3.22;;;0.28;;
34585;SDS011;20816;50.950;11.108;2022-09-16T13:08:24;0.60;;;0.40;;
34585;SDS011;20816;50.950;11.108;2022-09-16T13:10:54;0.40;;;0.40;;
34585;SDS011;20816;50.950;11.108;2022-09-16T13:13:47;0.88;;;0.50;;
34585;SDS011;20816;50.950;11.108;2022-09-16T13:19:18;0.60;;;0.40;;
34585;SDS011;20816;50.950;11.108;2022-09-16T13:21:49;1.13;;;0.30;;
34585;SDS011;20816;50.950;11.108;2022-09-16T13:24:36;1.10;;;0.45;;
34585;SDS011;20816;50.950;11.108;2022-09-16T13:30:25;0.30;;;0.30;;
34585;SDS011;20816;50.950;11.108;2022-09-16T13:35:34;0.95;;;0.40;;
34585;SDS011;20816;50.950;11.108;2022-09-16T13:40:40;0.45;;;0.40;;
34585;SDS011;20816;50.950;11.108;2022-09-16T13:43:28;0.60;;;0.30;;
34585;SDS011;20816;50.950;11.108;2022-09-16T13:46:04;1.92;;;0.52;;
34585;SDS011;20816;50.950;11.108;2022-09-16T13:48:38;0.35;;;0.35;;
34585;SDS011;20816;50.950;11.108;2022-09-16T13:51:08;1.48;;;0.60;;
34585;SDS011;20816;50.950;11.108;2022-09-16T13:53:49;0.22;;;0.22;;
34585;SDS011;20816;50.950;11.108;2022-09-16T13:56:30;0.50;;;0.50;;
34585;SDS011;20816;50.950;11.108;2022-09-16T13:59:27;0.60;;;0.47;;
34585;SDS011;20816;50.950;11.108;2022-09-16T14:02:13;0.47;;;0.40;;
34585;SDS011;20816;50.950;11.108;2022-09-16T14:13:40;0.52;;;0.30;;
34585;SDS011;20816;50.950;11.108;2022-09-16T14:16:14;0.40;;;0.30;;
34585;SDS011;20816;50.950;11.108;2022-09-16T14:18:53;0.85;;;0.47;;
34585;SDS011;20816;50.950;11.108;2022-09-16T14:21:29;0.35;;;0.30;;
34585;SDS011;20816;50.950;11.108;2022-09-16T14:24:06;1.08;;;0.52;;
34585;SDS011;20816;50.950;11.108;2022-09-16T14:26:53;0.85;;;0.35;;
34585;SDS011;20816;50.950;11.108;2022-09-16T14:29:22;0.30;;;0.30;;
34585;SDS011;20816;50.950;11.108;2022-09-16T14:31:51;0.40;;;0.40;;
34585;SDS011;20816;50.950;11.108;2022-09-16T14:34:54;2.47;;;0.30;;
34585;SDS011;20816;50.950;11.108;2022-09-16T14:37:18;0.43;;;0.32;;
34585;SDS011;20816;50.950;11.108;2022-09-16T14:39:46;0.43;;;0.28;;
34585;SDS011;20816;50.950;11.108;2022-09-16T14:42:20;0.70;;;0.43;;
34585;SDS011;20816;50.950;11.108;2022-09-16T14:44:49;0.40;;;0.40;;
34585;SDS011;20816;50.950;11.108;2022-09-16T14:47:29;0.35;;;0.30;;
34585;SDS011;20816;50.950;11.108;2022-09-16T14:50:27;0.57;;;0.35;;
34585;SDS011;20816;50.950;11.108;2022-09-16T14:53:00;0.20;;;0.20;;
34585;SDS011;20816;50.950;11.108;2022-09-16T14:55:30;0.45;;;0.45;;
34585;SDS011;20816;50.950;11.108;2022-09-16T14:57:58;1.85;;;0.30;;
34585;SDS011;20816;50.950;11.108;2022-09-16T15:00:27;0.20;;;0.20;;
34585;SDS011;20816;50.950;11.108;2022-09-16T15:03:16;0.70;;;0.30;;
34585;SDS011;20816;50.950;11.108;2022-09-16T15:05:50;0.60;;;0.60;;
34585;SDS011;20816;50.950;11.108;2022-09-16T15:08:35;1.48;;;0.43;;
34585;SDS011;20816;50.950;11.108;2022-09-16T15:11:13;4.53;;;0.45;;
34585;SDS011;20816;50.950;11.108;2022-09-16T15:14:05;1.05;;;0.95;;
34585;SDS011;20816;50.950;11.108;2022-09-16T15:16:33;3.33;;;0.68;;
34585;SDS011;20816;50.950;11.108;2022-09-16T15:19:15;0.45;;;0.30;;
34585;SDS011;20816;50.950;11.108;2022-09-16T15:21:46;0.65;;;0.40;;
34585;SDS011;20816;50.950;11.108;2022-09-16T15:24:18;1.05;;;0.90;;
34585;SDS011;20816;50.950;11.108;2022-09-16T15:26:48;1.83;;;0.60;;
34585;SDS011;20816;50.950;11.108;2022-09-16T15:31:48;0.68;;;0.38;;
34585;SDS011;20816;50.950;11.108;2022-09-16T15:36:55;1.67;;;0.20;;
34585;SDS011;20816;50.950;11.108;2022-09-16T15:39:27;1.50;;;0.28;;
34585;SDS011;20816;50.950;11.108;2022-09-16T15:42:17;0.30;;;0.20;;
34585;SDS011;20816;50.950;11.108;2022-09-16T15:44:48;0.32;;;0.32;;
34585;SDS011;20816;50.950;11.108;2022-09-16T15:47:20;1.73;;;0.35;;
34585;SDS011;20816;50.950;11.108;2022-09-16T15:49:52;0.35;;;0.35;;
34585;SDS011;20816;50.950;11.108;2022-09-16T15:52:26;0.45;;;0.30;;
34585;SDS011;20816;50.950;11.108;2022-09-16T15:54:54;0.22;;;0.22;;
34585;SDS011;20816;50.950;11.108;2022-09-16T15:57:35;0.20;;;0.20;;
34585;SDS011;20816;50.950;11.108;2022-09-16T16:00:11;2.10;;;0.45;;
34585;SDS011;20816;50.950;11.108;2022-09-16T16:02:44;0.70;;;0.40;;
34585;SDS011;20816;50.950;11.108;2022-09-16T16:05:16;1.85;;;0.45;;
34585;SDS011;20816;50.950;11.108;2022-09-16T16:07:45;0.88;;;0.50;;
34585;SDS011;20816;50.950;11.108;2022-09-16T16:10:18;0.43;;;0.30;;
34585;SDS011;20816;50.950;11.108;2022-09-16T16:12:47;1.17;;;0.60;;
34585;SDS011;20816;50.950;11.108;2022-09-16T16:15:16;1.58;;;0.50;;
34585;SDS011;20816;50.950;11.108;2022-09-16T16:17:46;0.80;;;0.55;;
34585;SDS011;20816;50.950;11.108;2022-09-16T16:20:14;1.45;;;0.75;;
34585;SDS011;20816;50.950;11.108;2022-09-16T16:22:42;0.50;;;0.40;;
34585;SDS011;20816;50.950;11.108;2022-09-16T16:25:12;1.23;;;0.60;;
34585;SDS011;20816;50.950;11.108;2022-09-16T16:27:39;1.08;;;0.60;;
34585;SDS011;20816;50.950;11.108;2022-09-16T16:30:06;1.58;;;0.65;;
34585;SDS011;20816;50.950;11.108;2022-09-16T16:32:33;1.00;;;0.45;;
34585;SDS011;20816;50.950;11.108;2022-09-16T16:35:00;1.20;;;0.60;;
34585;SDS011;20816;50.950;11.108;2022-09-16T16:37:27;0.50;;;0.50;;
34585;SDS011;20816;50.950;11.108;2022-09-16T16:40:10;1.48;;;0.57;;
34585;SDS011;20816;50.950;11.108;2022-09-16T16:42:37;1.20;;;0.63;;
34585;SDS011;20816;50.950;11.108;2022-09-16T16:45:05;1.35;;;0.40;;
34585;SDS011;20816;50.950;11.108;2022-09-16T16:47:32;0.57;;;0.57;;
34585;SDS011;20816;50.950;11.108;2022-09-16T16:50:00;1.52;;;0.47;;
34585;SDS011;20816;50.950;11.108;2022-09-16T16:52:26;0.20;;;0.20;;
34585;SDS011;20816;50.950;11.108;2022-09-16T16:54:54;0.40;;;0.20;;
34585;SDS011;20816;50.950;11.108;2022-09-16T16:57:20;2.88;;;0.40;;
34585;SDS011;20816;50.950;11.108;2022-09-16T16:59:47;2.38;;;0.20;;
34585;SDS011;20816;50.950;11.108;2022-09-16T17:02:14;0.50;;;0.20;;
34585;SDS011;20816;50.950;11.108;2022-09-16T17:04:41;0.43;;;0.10;;
34585;SDS011;20816;50.950;11.108;2022-09-16T17:07:08;0.45;;;0.20;;
34585;SDS011;20816;50.950;11.108;2022-09-16T17:09:53;0.28;;;0.20;;
34585;SDS011;20816;50.950;11.108;2022-09-16T17:12:19;0.40;;;0.40;;
34585;SDS011;20816;50.950;11.108;2022-09-16T17:14:46;5.70;;;0.53;;
34585;SDS011;20816;50.950;11.108;2022-09-16T17:17:13;2.00;;;0.57;;
34585;SDS011;20816;50.950;11.108;2022-09-16T17:19:40;0.57;;;0.30;;
34585;SDS011;20816;50.950;11.108;2022-09-16T17:22:07;0.40;;;0.20;;
34585;SDS011;20816;50.950;11.108;2022-09-16T17:24:34;0.30;;;0.17;;
34585;SDS011;20816;50.950;11.108;2022-09-16T17:27:00;3.95;;;0.40;;
34585;SDS011;20816;50.950;11.108;2022-09-16T17:29:27;3.72;;;0.32;;
34585;SDS011;20816;50.950;11.108;2022-09-16T17:31:54;0.30;;;0.20;;
34585;SDS011;20816;50.950;11.108;2022-09-16T17:34:22;0.60;;;0.23;;
34585;SDS011;20816;50.950;11.108;2022-09-16T17:36:51;0.97;;;0.20;;
34585;SDS011;20816;50.950;11.108;2022-09-16T17:39:18;0.83;;;0.20;;
34585;SDS011;20816;50.950;11.108;2022-09-16T17:41:46;0.33;;;0.30;;
34585;SDS011;20816;50.950;11.108;2022-09-16T17:44:14;1.33;;;0.40;;
34585;SDS011;20816;50.950;11.108;2022-09-16T17:46:43;0.83;;;0.30;;
34585;SDS011;20816;50.950;11.108;2022-09-16T17:49:15;0.57;;;0.53;;
34585;SDS011;20816;50.950;11.108;2022-09-16T17:51:44;1.07;;;0.60;;
34585;SDS011;20816;50.950;11.108;2022-09-16T17:54:11;0.50;;;0.40;;
34585;SDS011;20816;50.950;11.108;2022-09-16T17:56:38;0.40;;;0.40;;
34585;SDS011;20816;50.950;11.108;2022-09-16T17:59:06;4.03;;;0.87;;
34585;SDS011;20816;50.950;11.108;2022-09-16T18:01:33;0.60;;;0.30;;
34585;SDS011;20816;50.950;11.108;2022-09-16T18:04:00;0.67;;;0.30;;
34585;SDS011;20816;50.950;11.108;2022-09-16T18:06:28;0.63;;;0.30;;
34585;SDS011;20816;50.950;11.108;2022-09-16T18:09:00;1.90;;;0.50;;